x

Portland 12 Nm Southeast Of Portland,me (44007) Wave Buoy

7:50pm - Sun 19th Feb 2017 All times are EST. -5 hours from GMT.

  • Sig Wave height 1.6ft
  • Swell Direction
  • Peak Period 6s
  • Average Period 5s
  • Wind
    11mph
  • Sea Temp 38°f
  • Air Temp 45°f
  • Sea Pressure 1009.2mb
  • Portland 12 Nm Southeast Of Portland,me
  • Portland 12 Nm Southeast Of Portland,me

More Historic Weather Station data

Upgrade to MSW Pro to gain access to the past 30 days of data for over 8000 Wavebouys and Weather Stations around the globe.

Join Pro

Comparision Forecast

View Surf forecast
   
Sun 02/19 7:50pm 1.6ft 6s 5s 11
mph
1009.2mb 38f 45f
6:50pm 2ft 5s 5s 9 11 mph 1008.5mb 38f 46f
5:50pm 2.5ft 5s 4s 9 11 mph 1007.3mb 38f 47f
4:50pm 2.5ft 6s 4s 9 11 mph 1006.2mb 38f 46f
3:50pm 2.5ft 5s 5s 16 20 mph 1004.6mb 38f 50f
2:50pm 2.5ft 5s 4s 9 16 mph 1003.6mb 38f 47f
1:50pm 2.5ft 8s 5s 9 11 mph 1002.5mb 38f 44f
12:50pm 2.5ft 6s 5s 7
mph
1002.4mb 38f 44f
11:50am 2.5ft 6s 5s 9
mph
1002.7mb 38f 43f
10:50am 2.5ft 6s 5s 9
mph
1003.5mb 38f 42f
9:50am 2.5ft 6s 5s 11
mph
1003.5mb 38f 41f
8:50am 3ft 6s 5s 9
mph
1003.3mb 38f 41f
7:50am 3.5ft 6s 5s 13 16 mph 1002.4mb 38f 41f
6:50am 3.5ft 7s 5s 13 16 mph 1001.8mb 38f 42f
5:50am 3.5ft 6s 5s 13 16 mph 1000.8mb 38f 42f
4:50am 3.5ft 7s 5s 11 13 mph 1000.1mb 38f 41f
3:50am 4ft 6s 5s 9 11 mph 999.6mb 39f 41f
2:50am 4ft 6s 5s 9 11 mph 999mb 39f 40f
1:50am 4.5ft 6s 5s 13 16 mph 998.5mb 38f 41f
12:50am 4.5ft 7s 5s 13 16 mph 998mb 38f 43f
Sat 02/18 11:50pm 4.5ft 7s 5s 16 18 mph 997.5mb 38f 43f
10:50pm 4.5ft 7s 5s 16 18 mph 997.3mb 39f 42f
9:50pm 4.5ft 6s 5s 18 20 mph 997.5mb 39f 42f
8:50pm 4ft 6s 4s 20 22 mph 997.1mb 39f 43f
7:50pm 3.5ft 6s 4s 20 22 mph 996.9mb 39f 43f
6:50pm 3.5ft 5s 4s 18 22 mph 997.4mb 39f 43f
5:50pm 2.5ft 5s 4s 16 18 mph 998.4mb 39f 42f
4:50pm 3ft 5s 4s 11 13 mph 999mb 39f 42f
3:50pm 3.5ft 5s 4s 11 13 mph 1000.1mb 39f 41f
2:50pm 3ft 5s 4s 18 22 mph 1000.9mb 39f 41f
1:50pm 2.5ft 4s 4s 20 25 mph 1002mb 39f 40f
12:50pm 2ft 4s 4s 16 18 mph 1003mb 39f 38f
11:50am 1.6ft 3s 4s 9 11 mph 1005mb 39f 37f
10:50am 1.6ft 11s 4s 13 16 mph 1006mb 39f 35f
9:50am 1.3ft 11s 4s 13 18 mph 1007.4mb 38f 34f
8:50am 1.3ft 11s 4s 7 9 mph 1008.2mb 39f 33f
7:50am 1.3ft 11s 4s 2 4 mph 1008.6mb 38f 32f
6:50am 1.3ft 11s 4s 2
mph
1008mb 38f 31f
5:50am 1ft 11s 4s 7 9 mph 1008.1mb 38f 31f
4:50am 1ft 11s 4s 7
mph
1008.1mb 38f 31f
3:50am 1.3ft 11s 4s 7 9 mph 1008.5mb 38f 31f
2:50am 1.3ft 12s 4s 11 13 mph 1008.5mb 38f 31f
1:50am 1ft 11s 4s 9
mph
1008.5mb 38f 31f
12:50am 1.3ft 12s 5s 9
mph
1008mb 38f 31f
Fri 02/17 11:50pm 1.3ft 11s 4s 7 9 mph 1007.6mb 38f 31f
10:50pm 1.6ft 11s 4s 13 18 mph 1006.8mb 38f 32f
9:50pm 1.6ft 11s 4s 7 11 mph 1007mb 39f 32f
8:50pm 1.6ft 10s 4s 11
mph
1006.5mb 39f 32f
7:50pm 1.6ft 11s 4s 13 16 mph 1005.7mb 38f 34f
6:50pm 1.6ft 11s 4s 16 18 mph 1004.6mb 39f 35f
5:50pm 1.6ft 11s 4s 13 18 mph 1003.5mb 39f 37f
4:50pm 1.6ft 12s 4s 11 13 mph 1002.9mb 39f 38f
3:50pm 1.6ft 12s 4s 16 18 mph 1002mb 39f 38f
2:50pm 1.6ft 12s 4s 18 20 mph 1001.5mb 39f 37f
1:50pm 1.6ft 4s 4s 13 16 mph 1001.6mb 39f 37f
12:50pm 1.6ft 12s 4s 11 16 mph 1001.7mb 39f 35f
11:50am 2ft 12s 4s 13 18 mph 1002.1mb 39f 31f
10:50am 2ft 11s 4s 16 20 mph 1002.4mb 39f 29f
9:50am 2.5ft 11s 4s 18 20 mph 1002.4mb 38f 28f
8:50am 2.5ft 11s 5s 16 20 mph 1002mb 38f 27f
7:50am 2.5ft 11s 5s 20 22 mph 1001.2mb 39f 26f
6:50am 2.5ft 11s 5s 16 20 mph 1000.6mb 39f 26f
5:50am 2.5ft 11s 5s 16 22 mph 1000mb 39f 27f
4:50am 2.5ft 11s 4s 18 20 mph 999.4mb 39f 27f
3:50am 2.5ft 11s 4s 18 20 mph 999.3mb 39f 28f
2:50am 2.5ft 11s 4s 13 16 mph 999.1mb 39f 28f
1:50am 2.5ft 11s 4s 18 20 mph 999mb 39f 27f
12:50am 2.5ft 11s 4s 18 22 mph 998.8mb 39f 28f
Thu 02/16 11:50pm 3ft 10s 5s 22 27 mph 998.3mb 40f 29f
10:50pm 2.5ft 12s 5s 18 22 mph 998.6mb 39f 29f
9:50pm 3ft 12s 6s 16 18 mph 998.7mb 39f 29f
8:50pm 3.5ft 11s 7s 16 18 mph 998.5mb 39f 30f
7:50pm 3.5ft 11s 8s 11 13 mph 998.1mb 40f 30f
6:50pm 3.5ft 11s 6s 11 13 mph 997.3mb 40f 31f
5:50pm 4.5ft 11s 6s 18 22 mph 995.6mb 40f 32f
4:50pm 4ft 12s 5s 22 29 mph 994.2mb 40f 33f
3:50pm 4.5ft 10s 7s 20 27 mph 993.3mb 40f 35f
2:50pm 4.5ft 10s 8s 11 16 mph 993.1mb 40f 34f
1:50pm 5ft 8s 8s 11 16 mph 993mb 40f 33f
12:50pm 5ft 10s 8s 11 16 mph 993.4mb 40f 31f
11:50am 5.5ft 9s 8s 7 9 mph 994mb 40f 29f
10:50am 6ft 10s 7s 7 9 mph 994.6mb 40f 27f
9:50am 7.5ft 9s 8s 9 13 mph 994.3mb 40f 27f
8:50am 6ft 9s 7s 11 16 mph 994mb 40f 27f
7:50am 7.5ft 9s 6s 22 27 mph 993.2mb 40f 28f
6:50am 7ft 8s 6s 25 34 mph 992.6mb 40f 27f
5:50am 7ft 8s 6s 27 31 mph 992mb 40f 26f
4:50am 7.5ft 8s 6s 22 29 mph 991.5mb 41f 27f
3:50am 7.5ft 9s 6s 22 27 mph 990.5mb 41f 28f
2:50am 8.5ft 8s 6s 25 29 mph 989.6mb 41f 29f